Terminal Aerodrome Forecast
Issued by NWS Sioux Falls, SD

Home | Current Version | Previous Version | Text Only | Print | Product List | Glossary Off
Versions: 1 2 3 4 5 6 7 8 9 10 11 12 13 14 15 16 17 18 19 20 21 22 23 24 25 26 27 28 29 30

670
FTUS43 KFSD 282322
TAFSUX
TAF
KSUX 282322Z 2900/2924 15009KT P6SM FEW040 BKN200
     FM290300 15005KT P6SM SCT200
     FM291100 13004KT 5SM BR SCT080 BKN150
     FM291400 15005KT P6SM SCT050 BKN150
     FM291700 17008KT P6SM SCT060 BKN120=

USA.gov is the U.S. government's official web portal to all federal, state and local government web resources and services.